createdAt,value
2023-02-21T00:00:23.391Z,11.2
2023-02-21T00:01:23.390Z,11.2
2023-02-21T00:02:23.457Z,11.2
2023-02-21T00:03:23.389Z,11.3
2023-02-21T00:04:23.394Z,11.4
2023-02-21T00:05:23.446Z,11.3
2023-02-21T00:06:23.392Z,11.4
2023-02-21T00:07:23.394Z,11.5
2023-02-21T00:08:23.390Z,11.5
2023-02-21T00:09:23.389Z,11.5
2023-02-21T00:10:23.393Z,11.4
2023-02-21T00:11:24.058Z,11.4
2023-02-21T00:12:23.398Z,11.5
2023-02-21T00:13:23.410Z,11.7
2023-02-21T00:14:23.528Z,11.7
2023-02-21T00:15:23.405Z,11.6
2023-02-21T00:16:23.648Z,11.6
2023-02-21T00:17:23.394Z,11.6
2023-02-21T00:18:23.407Z,11.5
2023-02-21T00:19:23.399Z,11.5
2023-02-21T00:21:23.392Z,11.4
2023-02-21T00:22:23.406Z,11.5
2023-02-21T00:23:23.398Z,11.4
2023-02-21T00:24:23.398Z,11.4
2023-02-21T00:25:23.403Z,11.5
2023-02-21T00:26:23.395Z,11.5
2023-02-21T00:27:23.426Z,11.4
2023-02-21T00:28:23.396Z,11.5
2023-02-21T00:29:23.394Z,11.6
2023-02-21T00:30:23.535Z,11.6
2023-02-21T00:31:23.475Z,11.7
2023-02-21T00:32:23.409Z,11.7
2023-02-21T00:33:23.468Z,11.7
2023-02-21T00:34:23.390Z,11.6
2023-02-21T00:35:23.405Z,11.5
2023-02-21T00:36:23.420Z,11.4
2023-02-21T00:37:23.402Z,11.3
2023-02-21T00:38:26.069Z,11.4
2023-02-21T00:39:23.400Z,11.6
2023-02-21T00:40:23.393Z,11.7
2023-02-21T00:41:23.393Z,11.4
2023-02-21T00:42:23.387Z,11.5
2023-02-21T00:44:23.385Z,11.5
2023-02-21T00:45:23.385Z,11.6
2023-02-21T00:46:23.463Z,11.5
2023-02-21T00:47:23.410Z,11.5
2023-02-21T00:48:23.393Z,11.6
2023-02-21T00:49:23.393Z,11.6
2023-02-21T00:50:23.396Z,11.6
2023-02-21T00:51:23.390Z,11.6
2023-02-21T00:52:23.396Z,11.5
2023-02-21T00:53:23.389Z,11.4
2023-02-21T00:54:23.392Z,11.5
2023-02-21T00:55:23.391Z,11.5
2023-02-21T00:56:23.406Z,11.4
2023-02-21T00:57:23.390Z,11.2
2023-02-21T00:58:23.385Z,11.3
2023-02-21T00:59:23.392Z,11.5
2023-02-21T01:00:23.409Z,11.5
2023-02-21T01:01:23.401Z,11.4
2023-02-21T01:02:23.430Z,11.4
2023-02-21T01:03:23.394Z,11.4
2023-02-21T01:04:23.433Z,11.4
2023-02-21T01:05:23.388Z,11.5
2023-02-21T01:06:23.409Z,11.4
2023-02-21T01:07:23.411Z,11.4
2023-02-21T01:08:23.395Z,11.1
2023-02-21T01:09:23.400Z,11.1
2023-02-21T01:10:23.401Z,11.2
2023-02-21T01:11:23.391Z,11.3
2023-02-21T01:12:23.404Z,11.5
2023-02-21T01:13:23.404Z,11.5
2023-02-21T01:14:23.399Z,11.4
2023-02-21T01:15:23.397Z,11.4
2023-02-21T01:16:23.399Z,11.5
2023-02-21T01:17:23.391Z,11.5
2023-02-21T01:18:23.406Z,11.5
2023-02-21T01:19:23.405Z,11.6
2023-02-21T01:20:23.396Z,11.7
2023-02-21T01:21:23.396Z,11.7
2023-02-21T01:22:23.399Z,11.7
2023-02-21T01:23:23.414Z,11.7
2023-02-21T01:24:23.397Z,11.5
2023-02-21T01:25:23.399Z,11.5
2023-02-21T01:26:23.400Z,11.4
2023-02-21T01:27:23.400Z,11.3
2023-02-21T01:28:23.415Z,11.3
2023-02-21T01:29:23.407Z,11.4
2023-02-21T01:30:23.474Z,11.3
2023-02-21T01:31:23.456Z,11.2
2023-02-21T01:32:23.536Z,11.3
2023-02-21T01:33:23.400Z,11.3
2023-02-21T01:34:23.411Z,11.4
2023-02-21T01:35:23.411Z,11.3
2023-02-21T01:36:23.390Z,11.3
2023-02-21T01:37:23.403Z,11.2
2023-02-21T01:38:23.430Z,11.2
2023-02-21T01:39:23.407Z,11.2
2023-02-21T01:40:23.406Z,11.2
2023-02-21T01:41:23.397Z,11.3
2023-02-21T01:42:23.405Z,11.4
2023-02-21T01:43:23.403Z,11.5
2023-02-21T01:44:23.397Z,11.6
2023-02-21T01:45:23.411Z,11.6
2023-02-21T01:46:23.415Z,11.6
2023-02-21T01:47:23.399Z,11.6
2023-02-21T01:48:23.410Z,11.7
2023-02-21T01:49:23.396Z,11.7
2023-02-21T01:50:23.407Z,11.8
2023-02-21T01:51:23.386Z,11.6
2023-02-21T01:52:23.420Z,11.5
2023-02-21T01:53:23.398Z,11.6
2023-02-21T01:54:23.401Z,11.6
2023-02-21T01:55:23.404Z,11.5
2023-02-21T01:56:23.409Z,11.5
2023-02-21T01:57:23.390Z,11.4
2023-02-21T01:58:23.421Z,11.4
2023-02-21T01:59:23.423Z,11.5
2023-02-21T02:00:23.408Z,11.6
2023-02-21T02:01:23.520Z,11.7
2023-02-21T02:02:23.399Z,11.5
2023-02-21T02:03:23.416Z,11.5
2023-02-21T02:04:23.416Z,11.4
2023-02-21T02:05:23.408Z,11.4
2023-02-21T02:06:23.397Z,11.5
2023-02-21T02:07:23.408Z,11.6
2023-02-21T02:08:23.416Z,11.7
2023-02-21T02:09:23.419Z,11.6
2023-02-21T02:10:23.415Z,11.6
2023-02-21T02:11:23.397Z,11.6
2023-02-21T02:12:23.474Z,11.7
2023-02-21T02:13:23.402Z,11.7
2023-02-21T02:14:23.398Z,11.6
2023-02-21T02:15:23.398Z,11.5
2023-02-21T02:16:23.405Z,11.5
2023-02-21T02:17:23.408Z,11.5
2023-02-21T02:18:23.411Z,11.6
2023-02-21T02:19:23.415Z,11.6
2023-02-21T02:20:23.399Z,11.4
2023-02-21T02:21:23.403Z,11.5
2023-02-21T02:22:23.408Z,11.6
2023-02-21T02:23:23.401Z,11.6
2023-02-21T02:24:23.403Z,11.4
2023-02-21T02:25:23.419Z,11.3
2023-02-21T02:26:23.420Z,11.4
2023-02-21T02:27:23.402Z,11.4
2023-02-21T02:28:23.407Z,11.4
2023-02-21T02:29:23.426Z,11.3
2023-02-21T02:30:23.496Z,11.3
2023-02-21T02:31:23.575Z,11.4
2023-02-21T02:32:23.399Z,11.5
2023-02-21T02:33:23.401Z,11.6
2023-02-21T02:34:23.416Z,11.6
2023-02-21T02:35:23.425Z,11.4
2023-02-21T02:36:23.406Z,11.2
2023-02-21T02:37:23.399Z,11.1
2023-02-21T02:38:23.407Z,11.2
2023-02-21T02:39:23.401Z,11.4
2023-02-21T02:40:23.435Z,11.5
2023-02-21T02:41:23.414Z,11.4
2023-02-21T02:42:23.405Z,11.4
2023-02-21T02:43:23.408Z,11.5
2023-02-21T02:44:23.399Z,11.4
2023-02-21T02:45:23.398Z,11.4
2023-02-21T02:47:23.424Z,11.4
2023-02-21T02:48:23.420Z,11.6
2023-02-21T02:49:23.401Z,11.5
2023-02-21T02:50:23.421Z,11.5
2023-02-21T02:51:23.395Z,11.5
2023-02-21T02:52:23.400Z,11.6
2023-02-21T02:53:23.406Z,11.6
2023-02-21T02:54:23.404Z,11.5
2023-02-21T02:55:23.401Z,11.5
2023-02-21T02:56:23.405Z,11.5
2023-02-21T02:57:23.396Z,11.5
2023-02-21T02:58:23.397Z,11.5
2023-02-21T02:59:23.452Z,11.4
2023-02-21T03:00:23.401Z,11.5
2023-02-21T03:01:23.459Z,11.4
2023-02-21T03:02:23.415Z,11.3
2023-02-21T03:03:23.506Z,11.4
2023-02-21T03:04:23.411Z,11.4
2023-02-21T03:05:23.404Z,11.2
2023-02-21T03:06:23.417Z,11.2
2023-02-21T03:08:23.404Z,11.4
2023-02-21T03:09:23.402Z,11.4
2023-02-21T03:10:23.399Z,11.3
2023-02-21T03:11:23.424Z,11.4
2023-02-21T03:12:23.395Z,11.5
2023-02-21T03:13:23.400Z,11.5
2023-02-21T03:14:23.399Z,11.6
2023-02-21T03:15:23.412Z,11.6
2023-02-21T03:16:23.616Z,11.4
2023-02-21T03:17:23.404Z,11.4
2023-02-21T03:18:23.402Z,11.4
2023-02-21T03:19:23.419Z,11.6
2023-02-21T03:20:23.396Z,11.5
2023-02-21T03:21:23.395Z,11.5
2023-02-21T03:22:23.401Z,11.4
2023-02-21T03:23:23.396Z,11.3
2023-02-21T03:24:23.397Z,11.4
2023-02-21T03:25:23.401Z,11.3
2023-02-21T03:26:23.397Z,11.2
2023-02-21T03:27:23.399Z,11.4
2023-02-21T03:28:23.410Z,11.2
2023-02-21T03:29:23.399Z,11.3
2023-02-21T03:30:23.470Z,11.3
2023-02-21T03:31:23.435Z,11.3
2023-02-21T03:32:23.452Z,11.2
2023-02-21T03:33:23.398Z,11.2
2023-02-21T03:34:23.408Z,11.3
2023-02-21T03:35:23.414Z,11.4
2023-02-21T03:36:23.409Z,11.5
2023-02-21T03:37:23.395Z,11.5
2023-02-21T03:38:23.424Z,11.5
2023-02-21T03:40:23.397Z,11.4
2023-02-21T03:41:23.404Z,11.5
2023-02-21T03:42:23.429Z,11.5
2023-02-21T03:43:23.404Z,11.5
2023-02-21T03:44:23.406Z,11.5
2023-02-21T03:45:23.434Z,11.6
2023-02-21T03:46:23.547Z,11.6
2023-02-21T03:47:23.418Z,11.6
2023-02-21T03:48:31.929Z,11.6
2023-02-21T03:49:23.405Z,11.6
2023-02-21T03:50:23.400Z,11.7
2023-02-21T03:51:23.398Z,11.6
2023-02-21T03:52:23.418Z,11.4
2023-02-21T03:53:23.413Z,11.4
2023-02-21T03:54:23.434Z,11.4
2023-02-21T03:55:23.409Z,11.4
2023-02-21T03:56:28.128Z,11.4
2023-02-21T03:57:23.400Z,11.4
2023-02-21T03:58:23.426Z,11.5
2023-02-21T03:59:23.452Z,11.6
2023-02-21T04:00:23.405Z,11.4
2023-02-21T04:01:23.495Z,11.4
2023-02-21T04:02:23.430Z,11.3
2023-02-21T04:03:23.419Z,11.3
2023-02-21T04:04:23.415Z,11.3
2023-02-21T04:05:23.415Z,11.2
2023-02-21T04:06:23.406Z,11.2
2023-02-21T04:07:23.411Z,11.3
2023-02-21T04:08:23.413Z,11.4
2023-02-21T04:09:23.433Z,11.3
2023-02-21T04:10:23.400Z,11.3
2023-02-21T04:11:23.406Z,11.2
2023-02-21T04:12:23.412Z,11.2
2023-02-21T04:13:23.426Z,11.2
2023-02-21T04:15:23.406Z,11.1
2023-02-21T04:16:23.439Z,11
2023-02-21T04:17:23.414Z,11
2023-02-21T04:18:23.421Z,10.9
2023-02-21T04:19:23.407Z,11
2023-02-21T04:20:23.405Z,11.2
2023-02-21T04:21:23.412Z,11.3
2023-02-21T04:22:23.421Z,11.4
2023-02-21T04:23:23.431Z,11.4
2023-02-21T04:24:23.417Z,11.5
2023-02-21T04:25:23.416Z,11.5
2023-02-21T04:26:23.415Z,11.5
2023-02-21T04:27:23.412Z,11.4
2023-02-21T04:28:23.415Z,11.3
2023-02-21T04:29:23.427Z,11.3
2023-02-21T04:30:23.476Z,11.4
2023-02-21T04:31:23.468Z,11.5
2023-02-21T04:32:23.522Z,11.4
2023-02-21T04:33:23.406Z,11.5
2023-02-21T04:34:23.406Z,11.4
2023-02-21T04:35:23.409Z,11.4
2023-02-21T04:36:23.407Z,11.4
2023-02-21T04:37:23.403Z,11.4
2023-02-21T04:38:23.418Z,11.5
2023-02-21T04:39:23.413Z,11.3
2023-02-21T04:40:23.399Z,11.4
2023-02-21T04:41:23.405Z,11.3
2023-02-21T04:42:23.407Z,11.3
2023-02-21T04:43:23.415Z,11.3
2023-02-21T04:44:23.435Z,11.3
2023-02-21T04:45:23.412Z,11.4
2023-02-21T04:46:23.405Z,11.3
2023-02-21T04:47:23.415Z,11.4
2023-02-21T04:48:23.416Z,11.5
2023-02-21T04:49:23.408Z,11.4
2023-02-21T04:50:23.425Z,11.3
2023-02-21T04:51:23.406Z,11.3
2023-02-21T04:52:23.420Z,11.2
2023-02-21T04:53:23.419Z,11.3
2023-02-21T04:54:23.408Z,11.2
2023-02-21T04:55:23.411Z,11.1
2023-02-21T04:56:23.488Z,11
2023-02-21T04:57:23.407Z,11.1
2023-02-21T04:58:24.550Z,11.2
2023-02-21T04:59:23.404Z,11.3
2023-02-21T05:00:23.411Z,11.2
2023-02-21T05:01:23.535Z,11.2
2023-02-21T05:02:23.420Z,11.3
2023-02-21T05:03:23.409Z,11.4
2023-02-21T05:04:23.562Z,11.2
2023-02-21T05:05:23.452Z,11.2
2023-02-21T05:06:23.432Z,11.3
2023-02-21T05:07:23.415Z,11.3
2023-02-21T05:08:26.788Z,11.4
2023-02-21T05:09:23.414Z,11.5
2023-02-21T05:10:27.014Z,11.5
2023-02-21T05:11:23.417Z,11.6
2023-02-21T05:12:23.421Z,11.7
2023-02-21T05:13:23.408Z,11.6
2023-02-21T05:14:23.412Z,11.5
2023-02-21T05:15:23.437Z,11.6
2023-02-21T05:16:23.438Z,11.7
2023-02-21T05:17:23.414Z,11.7
2023-02-21T05:18:23.440Z,11.7
2023-02-21T05:19:23.406Z,11.7
2023-02-21T05:20:23.413Z,11.6
2023-02-21T05:21:23.426Z,11.5
2023-02-21T05:22:23.407Z,11.4
2023-02-21T05:23:23.410Z,11.2
2023-02-21T05:24:23.411Z,11
2023-02-21T05:25:23.412Z,11.1
2023-02-21T05:26:23.452Z,11.1
2023-02-21T05:27:23.412Z,11.2
2023-02-21T05:28:23.418Z,11.2
2023-02-21T05:29:23.413Z,11.3
2023-02-21T05:30:23.574Z,11.4
2023-02-21T05:31:23.467Z,11.4
2023-02-21T05:32:23.497Z,11.3
2023-02-21T05:33:23.423Z,11.3
2023-02-21T05:34:23.425Z,11.4
2023-02-21T05:35:23.432Z,11.4
2023-02-21T05:36:23.414Z,11.3
2023-02-21T05:37:23.419Z,11.3
2023-02-21T05:38:23.415Z,11.3
2023-02-21T05:39:23.468Z,11.4
2023-02-21T05:40:23.416Z,11.4
2023-02-21T05:41:23.409Z,11.4
2023-02-21T05:42:23.409Z,11.5
2023-02-21T05:43:23.421Z,11.5
2023-02-21T05:44:23.411Z,11.6
2023-02-21T05:45:23.406Z,11.6
2023-02-21T05:46:23.471Z,11.6
2023-02-21T05:47:23.422Z,11.6
2023-02-21T05:48:23.409Z,11.7
2023-02-21T05:49:23.417Z,11.7
2023-02-21T05:50:23.430Z,11.7
2023-02-21T05:51:23.426Z,11.7
2023-02-21T05:52:23.415Z,11.8
2023-02-21T05:53:23.411Z,11.7
2023-02-21T05:54:23.407Z,11.8
2023-02-21T05:55:23.421Z,11.8
2023-02-21T05:57:23.411Z,11.5
2023-02-21T05:58:23.508Z,11.5
2023-02-21T05:59:23.414Z,11.6
2023-02-21T06:00:23.406Z,11.7
2023-02-21T06:01:23.424Z,11.7
2023-02-21T06:02:23.464Z,11.6
2023-02-21T06:03:23.492Z,11.6
2023-02-21T06:04:23.407Z,11.6
2023-02-21T06:05:23.426Z,11.6
2023-02-21T06:06:23.410Z,11.5
2023-02-21T06:07:23.416Z,11.5
2023-02-21T06:08:23.407Z,11.5
2023-02-21T06:09:23.414Z,11.4
2023-02-21T06:10:23.405Z,11.3
2023-02-21T06:11:23.416Z,11.3
2023-02-21T06:12:23.406Z,11.3
2023-02-21T06:13:23.425Z,11.5
2023-02-21T06:14:23.420Z,11.4
2023-02-21T06:16:23.411Z,11.5
2023-02-21T06:17:23.430Z,11.4
2023-02-21T06:18:23.401Z,11.3
2023-02-21T06:19:23.409Z,11.2
2023-02-21T06:20:23.416Z,11.2
2023-02-21T06:21:23.411Z,11.2
2023-02-21T06:22:23.435Z,11.1
2023-02-21T06:23:23.422Z,11
2023-02-21T06:24:23.408Z,10.9
2023-02-21T06:25:23.402Z,11
2023-02-21T06:26:23.404Z,11.2
2023-02-21T06:27:23.404Z,11.2
2023-02-21T06:28:23.410Z,11.1
2023-02-21T06:29:23.405Z,11
2023-02-21T06:30:23.471Z,11.1
2023-02-21T06:31:23.470Z,11
2023-02-21T06:32:23.434Z,10.8
2023-02-21T06:33:23.412Z,10.7
2023-02-21T06:34:23.411Z,10.7
2023-02-21T06:35:23.413Z,10.7
2023-02-21T06:36:23.584Z,10.5
2023-02-21T06:37:23.417Z,10.4
2023-02-21T06:38:23.422Z,10.4
2023-02-21T06:39:23.411Z,10.5
2023-02-21T06:40:23.415Z,10.3
2023-02-21T06:41:23.418Z,10.4
2023-02-21T06:42:23.415Z,10.5
2023-02-21T06:43:23.422Z,10.7
2023-02-21T06:44:23.416Z,10.7
2023-02-21T06:45:23.418Z,10.8
2023-02-21T06:46:23.521Z,10.9
2023-02-21T06:47:23.423Z,10.6
2023-02-21T06:48:23.450Z,10.7
2023-02-21T06:49:23.417Z,10.7
2023-02-21T06:50:23.421Z,10.8
2023-02-21T06:51:23.414Z,10.8
2023-02-21T06:52:23.424Z,10.9
2023-02-21T06:53:23.412Z,11
2023-02-21T06:54:23.413Z,11
2023-02-21T06:55:25.437Z,10.9
2023-02-21T06:56:23.420Z,11.1
2023-02-21T06:57:23.415Z,11.1
2023-02-21T06:58:23.446Z,11.2
2023-02-21T06:59:23.421Z,11.1
2023-02-21T07:00:23.439Z,11.2
2023-02-21T07:01:23.429Z,11.3
2023-02-21T07:02:23.415Z,11.3
2023-02-21T07:03:23.432Z,11.4
2023-02-21T07:04:23.475Z,11.5
2023-02-21T07:05:23.420Z,11.5
2023-02-21T07:06:23.427Z,11.5
2023-02-21T07:07:23.422Z,11.5
2023-02-21T07:08:23.423Z,11.5
2023-02-21T07:09:23.417Z,11.5
2023-02-21T07:10:23.410Z,11.4
2023-02-21T07:11:23.418Z,11.4
2023-02-21T07:12:23.419Z,11.4
2023-02-21T07:13:23.416Z,11.5
2023-02-21T07:14:23.422Z,11.3
2023-02-21T07:15:23.427Z,11.3
2023-02-21T07:16:23.430Z,11.3
2023-02-21T07:17:23.411Z,11.3
2023-02-21T07:18:23.420Z,11.3
2023-02-21T07:19:23.451Z,11.2
2023-02-21T07:21:23.430Z,11.1
2023-02-21T07:22:23.417Z,11
2023-02-21T07:23:23.422Z,10.8
2023-02-21T07:24:23.419Z,11
2023-02-21T07:25:23.407Z,11
2023-02-21T07:26:23.422Z,10.7
2023-02-21T07:27:23.421Z,10.7
2023-02-21T07:28:23.423Z,10.7
2023-02-21T07:29:23.444Z,10.7
2023-02-21T07:30:23.452Z,10.6
2023-02-21T07:31:23.658Z,10.6
2023-02-21T07:33:23.411Z,10.7
2023-02-21T07:34:23.413Z,10.8
2023-02-21T07:35:23.416Z,10.9
2023-02-21T07:36:23.410Z,10.8
2023-02-21T07:37:23.430Z,10.8
2023-02-21T07:38:23.428Z,10.9
2023-02-21T07:39:23.416Z,11
2023-02-21T07:40:23.412Z,11.1
2023-02-21T07:41:23.437Z,11.2
2023-02-21T07:42:23.409Z,11.3
2023-02-21T07:43:23.416Z,11.3
2023-02-21T07:44:23.417Z,11.3
2023-02-21T07:45:23.561Z,11.2
2023-02-21T07:46:23.487Z,10.9
2023-02-21T07:47:23.420Z,10.7
2023-02-21T07:48:23.416Z,10.9
2023-02-21T07:49:23.420Z,11
2023-02-21T07:50:23.461Z,11
2023-02-21T07:51:23.434Z,11
2023-02-21T07:52:23.423Z,11
2023-02-21T07:53:23.426Z,11
2023-02-21T07:54:23.421Z,11
2023-02-21T07:55:23.414Z,10.9
2023-02-21T07:56:23.415Z,10.9
2023-02-21T07:57:23.410Z,10.9
2023-02-21T07:58:23.423Z,10.9
2023-02-21T07:59:23.424Z,11
2023-02-21T08:00:23.412Z,11
2023-02-21T08:01:23.492Z,11
2023-02-21T08:02:23.418Z,11
2023-02-21T08:03:23.420Z,11.1
2023-02-21T08:04:23.504Z,11.1
2023-02-21T08:05:23.434Z,11
2023-02-21T08:06:23.426Z,11
2023-02-21T08:07:23.416Z,11
2023-02-21T08:08:23.427Z,11
2023-02-21T08:09:23.423Z,11
2023-02-21T08:10:23.430Z,11
2023-02-21T08:11:23.423Z,11
2023-02-21T08:12:23.418Z,11.1
2023-02-21T08:13:23.425Z,11.2
2023-02-21T08:14:23.422Z,11.1
2023-02-21T08:15:23.424Z,10.9
2023-02-21T08:16:23.491Z,10.8
2023-02-21T08:17:23.412Z,10.8
2023-02-21T08:18:23.428Z,10.9
2023-02-21T08:19:23.419Z,11
2023-02-21T08:20:23.427Z,11.1
2023-02-21T08:21:23.436Z,11.1
2023-02-21T08:22:23.410Z,11.1
2023-02-21T08:23:23.415Z,11.2
2023-02-21T08:24:23.428Z,11.1
2023-02-21T08:25:23.436Z,11.1
2023-02-21T08:26:23.424Z,11.1
2023-02-21T08:28:23.430Z,11.2
2023-02-21T08:29:23.416Z,11.2
2023-02-21T08:30:23.576Z,11.1
2023-02-21T08:31:23.489Z,11.1
2023-02-21T08:32:23.471Z,11.2
2023-02-21T08:33:23.411Z,11.3
2023-02-21T08:34:23.416Z,11.3
2023-02-21T08:35:23.425Z,11.2
2023-02-21T08:36:23.408Z,11
2023-02-21T08:37:23.416Z,11
2023-02-21T08:38:23.448Z,11
2023-02-21T08:39:23.410Z,11.2
2023-02-21T08:40:23.418Z,11.3
2023-02-21T08:41:23.425Z,11.3
2023-02-21T08:42:23.410Z,11.3
2023-02-21T08:43:23.429Z,11.4
2023-02-21T08:44:23.414Z,11.1
2023-02-21T08:45:23.416Z,10.9
2023-02-21T08:46:23.455Z,10.9
2023-02-21T08:47:23.414Z,11
2023-02-21T08:48:23.419Z,11.1
2023-02-21T08:49:23.419Z,11
2023-02-21T08:50:23.418Z,10.9
2023-02-21T08:51:23.409Z,10.8
2023-02-21T08:52:23.460Z,10.9
2023-02-21T08:53:23.409Z,11
2023-02-21T08:54:23.422Z,11.1
2023-02-21T08:55:23.417Z,11
2023-02-21T08:56:23.443Z,10.9
2023-02-21T08:57:23.413Z,10.7
2023-02-21T08:58:23.421Z,10.5
2023-02-21T08:59:23.452Z,10.6
2023-02-21T09:00:23.587Z,10.8
2023-02-21T09:01:23.508Z,10.9
2023-02-21T09:02:23.481Z,10.8
2023-02-21T09:03:23.413Z,10.8
2023-02-21T09:04:24.763Z,10.9
2023-02-21T09:05:23.424Z,11.1
2023-02-21T09:07:23.419Z,11
2023-02-21T09:08:23.422Z,11.2
2023-02-21T09:09:23.429Z,11.3
2023-02-21T09:10:23.445Z,11.4
2023-02-21T09:11:23.432Z,11.4
2023-02-21T09:12:23.429Z,11.3
2023-02-21T09:13:23.421Z,11.3
2023-02-21T09:14:23.414Z,11.2
2023-02-21T09:15:23.418Z,11.1
2023-02-21T09:16:23.523Z,10.8
2023-02-21T09:17:23.421Z,10.7
2023-02-21T09:18:23.417Z,10.6
2023-02-21T09:19:23.415Z,10.6
2023-02-21T09:20:23.470Z,10.5
2023-02-21T09:21:23.419Z,10.6
2023-02-21T09:22:23.425Z,10.7
2023-02-21T09:23:23.441Z,10.7
2023-02-21T09:24:23.416Z,10.7
2023-02-21T09:25:23.420Z,10.7
2023-02-21T09:26:23.415Z,10.7
2023-02-21T09:28:23.428Z,10.7
2023-02-21T09:29:23.423Z,10.9
2023-02-21T09:30:23.542Z,11.1
2023-02-21T09:31:23.504Z,11.2
2023-02-21T09:32:23.426Z,11.3
2023-02-21T09:33:25.188Z,11.2
2023-02-21T09:34:23.418Z,11.1
2023-02-21T09:35:23.440Z,11.2
2023-02-21T09:36:23.425Z,11.2
2023-02-21T09:37:23.420Z,11.2
2023-02-21T09:38:23.419Z,11.2
2023-02-21T09:39:23.432Z,11.2
2023-02-21T09:40:23.433Z,11.3
2023-02-21T09:41:23.415Z,11.4
2023-02-21T09:42:23.559Z,11.4
2023-02-21T09:43:23.429Z,11.3
2023-02-21T09:44:23.422Z,11.4
2023-02-21T09:45:23.423Z,11.3
2023-02-21T09:46:23.426Z,11.3
2023-02-21T09:47:23.425Z,11.2
2023-02-21T09:48:23.415Z,11.2
2023-02-21T09:49:23.420Z,11.2
2023-02-21T09:50:23.427Z,11.3
2023-02-21T09:51:23.417Z,11.4
2023-02-21T09:52:23.424Z,11.2
2023-02-21T09:53:23.421Z,11.2
2023-02-21T09:54:23.451Z,11.3
2023-02-21T09:55:23.422Z,11.4
2023-02-21T09:56:23.413Z,11.5
2023-02-21T09:57:23.413Z,11.4
2023-02-21T09:58:23.420Z,11.5
2023-02-21T09:59:23.414Z,11.4
2023-02-21T10:00:23.424Z,11.5
2023-02-21T10:01:23.489Z,11.5
2023-02-21T10:03:23.426Z,11.4
2023-02-21T10:04:23.442Z,11
2023-02-21T10:05:23.429Z,10.5
2023-02-21T10:06:23.573Z,10.5
2023-02-21T10:07:23.420Z,10.5
2023-02-21T10:08:23.411Z,10.7
2023-02-21T10:09:23.420Z,10.8
2023-02-21T10:10:23.422Z,10.8
2023-02-21T10:11:23.460Z,10.8
2023-02-21T10:12:23.415Z,10.9
2023-02-21T10:13:23.424Z,10.8
2023-02-21T10:14:23.421Z,10.9
2023-02-21T10:15:23.423Z,11
2023-02-21T10:16:23.487Z,10.9
2023-02-21T10:17:23.412Z,10.8
2023-02-21T10:18:23.425Z,10.9
2023-02-21T10:19:23.415Z,10.7
2023-02-21T10:20:23.421Z,10.8
2023-02-21T10:21:23.418Z,10.7
2023-02-21T10:22:23.432Z,10.8
2023-02-21T10:23:23.434Z,10.9
2023-02-21T10:24:23.436Z,10.9
2023-02-21T10:25:23.443Z,11
2023-02-21T10:26:23.419Z,10.8
2023-02-21T10:27:23.419Z,10.7
2023-02-21T10:28:23.439Z,10.7
2023-02-21T10:29:23.432Z,10.5
2023-02-21T10:30:23.566Z,10.2
2023-02-21T10:31:23.464Z,10.4
2023-02-21T10:32:23.412Z,10.7
2023-02-21T10:33:23.422Z,10.9
2023-02-21T10:34:23.426Z,11
2023-02-21T10:35:23.429Z,11.1
2023-02-21T10:36:23.477Z,10.8
2023-02-21T10:37:23.483Z,10.8
2023-02-21T10:38:23.421Z,10.7
2023-02-21T10:39:23.418Z,10.9
2023-02-21T10:40:23.414Z,10.9
2023-02-21T10:41:23.797Z,10.7
2023-02-21T10:42:23.416Z,10.3
2023-02-21T10:43:23.435Z,10
2023-02-21T10:44:23.415Z,10
2023-02-21T10:45:23.419Z,10.2
2023-02-21T10:46:23.530Z,10.5
2023-02-21T10:47:23.415Z,10.6
2023-02-21T10:48:23.423Z,10.6
2023-02-21T10:49:23.411Z,10.5
2023-02-21T10:50:23.424Z,10.2
2023-02-21T10:51:23.423Z,10.3
2023-02-21T10:52:23.425Z,10.6
2023-02-21T10:53:23.470Z,10.7
2023-02-21T10:54:23.413Z,10.9
2023-02-21T10:55:32.265Z,11.1
2023-02-21T10:56:23.464Z,11.3
2023-02-21T10:57:23.417Z,11.2
2023-02-21T10:58:23.433Z,11
2023-02-21T10:59:23.427Z,11
2023-02-21T11:00:23.424Z,11
2023-02-21T11:01:23.426Z,11.1
2023-02-21T11:02:23.443Z,11
2023-02-21T11:03:23.429Z,11.2
2023-02-21T11:04:23.431Z,11.3
2023-02-21T11:05:23.432Z,11.5
2023-02-21T11:06:23.416Z,11.6
2023-02-21T11:07:23.419Z,11.7
2023-02-21T11:08:23.431Z,11.6
2023-02-21T11:09:23.415Z,11.7
2023-02-21T11:10:23.432Z,11.8
2023-02-21T11:11:23.414Z,12
2023-02-21T11:12:23.430Z,12.1
2023-02-21T11:13:23.431Z,12.1
2023-02-21T11:14:23.411Z,12
2023-02-21T11:15:23.418Z,12
2023-02-21T11:16:23.419Z,12
2023-02-21T11:17:23.439Z,11.9
2023-02-21T11:18:23.429Z,11.9
2023-02-21T11:19:23.420Z,12
2023-02-21T11:20:23.424Z,12
2023-02-21T11:21:23.422Z,12.1
2023-02-21T11:22:23.420Z,12.2
2023-02-21T11:23:23.426Z,12.3
2023-02-21T11:24:23.420Z,12.3
2023-02-21T11:25:23.425Z,12.2
2023-02-21T11:26:23.419Z,12.3
2023-02-21T11:27:23.446Z,12.3
2023-02-21T11:28:23.423Z,12.3
2023-02-21T11:29:23.417Z,12.4
2023-02-21T11:30:23.468Z,12.3
2023-02-21T11:31:23.440Z,12.3
2023-02-21T11:32:23.436Z,12.4
2023-02-21T11:33:23.428Z,12.1
2023-02-21T11:34:23.419Z,12.1
2023-02-21T11:35:23.425Z,12.2
2023-02-21T11:36:23.429Z,12.2
2023-02-21T11:37:23.422Z,12.2
2023-02-21T11:38:23.429Z,12.1
2023-02-21T11:39:23.435Z,12.2
2023-02-21T11:40:23.427Z,12.3
2023-02-21T11:41:23.426Z,12.4
2023-02-21T11:42:23.443Z,12.3
2023-02-21T11:43:23.431Z,12.1
2023-02-21T11:44:23.453Z,12
2023-02-21T11:45:23.444Z,11.8
2023-02-21T11:46:23.512Z,11.6
2023-02-21T11:47:23.429Z,11.4
2023-02-21T11:48:23.435Z,10.9
2023-02-21T11:49:23.427Z,10.8
2023-02-21T11:50:23.466Z,11
2023-02-21T11:51:23.421Z,11
2023-02-21T11:52:23.426Z,11.3
2023-02-21T11:53:23.437Z,11.4
2023-02-21T11:54:23.432Z,11.3
2023-02-21T11:55:26.141Z,11.2
2023-02-21T11:56:23.444Z,11.3
2023-02-21T11:57:23.493Z,11.5
2023-02-21T11:58:23.472Z,11.6
2023-02-21T11:59:23.433Z,11.4
2023-02-21T12:00:23.428Z,11.2
2023-02-21T12:01:23.427Z,11.3
2023-02-21T12:02:23.458Z,11.3
2023-02-21T12:03:23.433Z,11.4
2023-02-21T12:04:23.424Z,11.2
2023-02-21T12:05:23.424Z,11.1
2023-02-21T12:06:23.415Z,11.3
2023-02-21T12:07:23.429Z,11.5
2023-02-21T12:08:23.499Z,11.5
2023-02-21T12:09:23.421Z,11.4
2023-02-21T12:10:23.415Z,11.4
2023-02-21T12:11:23.424Z,11.4
2023-02-21T12:12:23.432Z,11.3
2023-02-21T12:13:23.438Z,11.4
2023-02-21T12:14:23.434Z,11.6
2023-02-21T12:15:23.420Z,11.7
2023-02-21T12:16:23.437Z,12
2023-02-21T12:17:23.411Z,12.1
2023-02-21T12:18:23.468Z,12.2
2023-02-21T12:19:23.423Z,12.2
2023-02-21T12:20:23.427Z,12.1
2023-02-21T12:21:23.426Z,11.8
2023-02-21T12:22:23.429Z,11.7
2023-02-21T12:23:23.445Z,11.9
2023-02-21T12:24:23.419Z,12.1
2023-02-21T12:25:23.424Z,12.3
2023-02-21T12:26:23.421Z,12.5
2023-02-21T12:27:23.437Z,12.5
2023-02-21T12:28:23.430Z,12.6
2023-02-21T12:29:23.447Z,12.7
2023-02-21T12:30:23.520Z,12.9
2023-02-21T12:31:23.635Z,12.9
2023-02-21T12:32:23.564Z,13
2023-02-21T12:33:25.844Z,13.1
2023-02-21T12:34:23.423Z,13.1
2023-02-21T12:35:23.534Z,13.1
2023-02-21T12:36:23.429Z,13.1
2023-02-21T12:37:23.431Z,13.2
2023-02-21T12:38:23.439Z,13.3
2023-02-21T12:39:23.432Z,13.4
2023-02-21T12:40:23.429Z,13.5
2023-02-21T12:41:23.435Z,13.6
2023-02-21T12:42:23.429Z,13.5
2023-02-21T12:43:23.440Z,13.4
2023-02-21T12:44:23.434Z,13.4
2023-02-21T12:45:23.431Z,13.4
2023-02-21T12:46:23.483Z,13.5
2023-02-21T12:47:23.465Z,13.5
2023-02-21T12:48:23.440Z,13.5
2023-02-21T12:49:23.441Z,13.6
2023-02-21T12:50:23.445Z,13.4
2023-02-21T12:51:23.433Z,13.5
2023-02-21T12:52:23.439Z,13.5
2023-02-21T12:53:23.452Z,13.5
2023-02-21T12:54:23.468Z,13.4
2023-02-21T12:55:23.434Z,13.4
2023-02-21T12:56:23.436Z,13.5
2023-02-21T12:57:23.429Z,13.5
2023-02-21T12:58:23.433Z,13.3
2023-02-21T12:59:23.430Z,12.5
2023-02-21T13:00:23.460Z,12.4
2023-02-21T13:01:23.656Z,12.5
2023-02-21T13:02:23.441Z,12.6
2023-02-21T13:03:24.024Z,12.6
2023-02-21T13:04:23.441Z,12.7
2023-02-21T13:05:23.435Z,12.8
2023-02-21T13:06:23.440Z,12.9
2023-02-21T13:07:23.439Z,13.1
2023-02-21T13:08:23.502Z,13.3
2023-02-21T13:09:23.458Z,13.2
2023-02-21T13:10:23.425Z,13.2
2023-02-21T13:11:23.439Z,13.2
2023-02-21T13:12:23.428Z,13.3
2023-02-21T13:13:23.429Z,13.4
2023-02-21T13:14:23.435Z,13.3
2023-02-21T13:15:23.437Z,13.2
2023-02-21T13:16:23.484Z,13.3
2023-02-21T13:17:23.428Z,13.3
2023-02-21T13:18:23.444Z,13.4
2023-02-21T13:19:23.431Z,13.5
2023-02-21T13:20:23.445Z,13.4
2023-02-21T13:21:23.431Z,13.3
2023-02-21T13:22:23.512Z,13
2023-02-21T13:23:23.443Z,12.8
2023-02-21T13:24:23.435Z,12.4
2023-02-21T13:25:23.437Z,12.3
2023-02-21T13:26:23.428Z,12.4
2023-02-21T13:27:23.433Z,12.6
2023-02-21T13:28:23.457Z,12.8
2023-02-21T13:29:23.432Z,13
2023-02-21T13:30:23.565Z,13
2023-02-21T13:31:23.593Z,13.1
2023-02-21T13:32:23.526Z,13.2
2023-02-21T13:33:23.452Z,13.2
2023-02-21T13:34:23.435Z,13.2
2023-02-21T13:35:23.451Z,13.3
2023-02-21T13:36:23.440Z,13.3